Huvudsida
METAR-TAF:

METAR-TAF

Flygplatser :

Abadeh, Iran

latitud: 31-11N, longitud: 052-40E, höjd: 2004 m

Aktuellt väderrapport

Denna rapport gjordes för 14 timmar och 38 minuter sedan, klockan 14:00 UTC
Vind 14 kt från sydväst
Temperatur 10°C
Fuktighet 43%
Tryck 1017 hPa
Sikt 10 km eller mer
Spridda moln på en höjd av 4000 ft

METAR: OISA 191400Z 22014KT 9999 SCT040 10/M02 Q1017 A3003

Tid: 08:08 (04:38 UTC)


TAF: saknas

Aktuella väderrapporter och prognoser från 4000 flygplatser (METAR- och TAF-rapporter).

De tillgängliga stationerna syns som gula och röda prickar på kartan.

För musen över prickarna för att se namnen på stationerna.

Klicka sedan för att få väderrapporter och prognoser.

För att ändra kartan: Klicka på de gröna knapparna med ett svart kors på för att zooma in; den gröna knappen med ett streck på för att zooma ut; eller på de gröna pilarna för angränsande kartor.


METAR-TAF: